Etusivu
METAR-TAF:

METAR-TAF

Lentoasemat :

Rønne, Tanska

Leveyspiiri: 55-04N, Pituuspiiri: 014-45E, korkeus merenpinnasta: 16 m

Tämänhetkinen sää

Tämä raportti tehtiin 27 minuuttia sitten, kello 20.20 UTC
Tuuli 4 kn idästä/koillisesta
Lämpötila 14°C
Kosteus 88%
Ilmanpaine 1017 hPa
Näkyvyys 10 km tai enemmän

METAR: EKRN 212020Z AUTO 07004KT 9999NDV FEW017/// 14/12 Q1017

Aika: 22:47 (20:47 UTC)

Sääennuste

Tämä raportti tehtiin 6 tuntia ja 14 minuuttia sitten, kello 14.33 UTC
Ennuste voimassa 21. päivästä klo 15 UTC - 21. päivään klo 21 UTC
Tuuli 10 kn idästä/koillisesta
Näkyvyys 10 km tai enemmän
Hajonneita pilviä 1500 ft:n korkeudessa

TAF: EKRN 211433Z 2115/2121 07010KT 9999 BKN015

Säähavainnot ja -ennusteet yli 4000 lentoasemalta (METAR- ja TAF-raportit).

Käytössä olevat sääasemat on merkitty karttaan keltaisilla ja punaisilla pisteillä.

Aseta hiiri pisteen päälle nähdäksesi sääaseman nimen.

Klikkaa sitten nähdäksesi säähavainnot ja -ennusteet.

Kartan vaihtaminen: klikkaa mustalla rastilla varustettuja vihreitä pisteitä, niin voit zoomata sisään; viivalla varustettua vihreää pistettä, niin voit zoomata ulos tai vihreitä nuolia, niin pääset viereisille kartoille.


METAR-TAF: